createdAt,value
2017-11-30T00:01:02.741Z,100.00
2017-11-30T00:03:30.273Z,100.00
2017-11-30T00:05:57.876Z,100.00
2017-11-30T00:08:25.423Z,99.94
2017-11-30T00:10:52.946Z,100.00
2017-11-30T00:13:20.630Z,100.00
2017-11-30T00:15:48.178Z,99.92
2017-11-30T00:18:15.720Z,100.00
2017-11-30T00:20:43.315Z,100.00
2017-11-30T00:23:10.842Z,100.00
2017-11-30T00:25:38.407Z,100.00
2017-11-30T00:28:05.950Z,100.00
2017-11-30T00:30:33.532Z,100.00
2017-11-30T00:33:01.081Z,100.00
2017-11-30T00:35:28.633Z,100.00
2017-11-30T00:37:56.199Z,100.00
2017-11-30T00:40:23.736Z,100.00
2017-11-30T00:43:04.218Z,100.00
2017-11-30T00:45:31.784Z,100.00
2017-11-30T00:47:59.332Z,100.00
2017-11-30T00:50:26.994Z,100.00
2017-11-30T00:52:54.556Z,100.00
2017-11-30T00:55:22.112Z,100.00
2017-11-30T00:57:49.715Z,100.00
2017-11-30T01:00:17.423Z,100.00
2017-11-30T01:02:44.967Z,100.00
2017-11-30T01:05:12.533Z,100.00
2017-11-30T01:07:40.100Z,99.98
2017-11-30T01:10:07.648Z,100.00
2017-11-30T01:12:35.165Z,99.88
2017-11-30T01:15:02.737Z,99.99
2017-11-30T01:17:30.765Z,100.00
2017-11-30T01:19:58.301Z,100.00
2017-11-30T01:22:25.867Z,100.00
2017-11-30T01:24:53.540Z,100.00
2017-11-30T01:27:21.091Z,100.00
2017-11-30T01:29:48.639Z,100.00
2017-11-30T01:32:16.235Z,100.00
2017-11-30T01:34:43.767Z,100.00
2017-11-30T01:37:11.300Z,100.00
2017-11-30T01:39:38.867Z,100.00
2017-11-30T01:42:06.413Z,100.00
2017-11-30T01:44:33.972Z,100.00
2017-11-30T01:47:01.600Z,100.00
2017-11-30T01:49:29.135Z,100.00
2017-11-30T01:51:56.663Z,100.00
2017-11-30T01:54:24.313Z,100.00
2017-11-30T01:56:51.886Z,100.00
2017-11-30T01:59:19.433Z,100.00
2017-11-30T02:01:47.113Z,100.00
2017-11-30T02:04:14.647Z,100.00
2017-11-30T02:06:42.174Z,100.00
2017-11-30T02:09:09.768Z,100.00
2017-11-30T02:11:37.309Z,100.00
2017-11-30T02:14:04.829Z,100.00
2017-11-30T02:16:32.505Z,100.00
2017-11-30T02:19:00.046Z,100.00
2017-11-30T02:21:27.604Z,100.00
2017-11-30T02:23:55.260Z,100.00
2017-11-30T02:26:22.918Z,100.00
2017-11-30T02:28:50.496Z,100.00
2017-11-30T02:31:18.184Z,100.00
2017-11-30T02:33:45.759Z,100.00
2017-11-30T02:36:13.315Z,100.00
2017-11-30T02:38:42.785Z,100.00
2017-11-30T02:41:10.435Z,100.00
2017-11-30T02:43:37.983Z,100.00
2017-11-30T02:46:05.571Z,100.00
2017-11-30T02:48:33.146Z,100.00
2017-11-30T02:51:00.760Z,100.00
2017-11-30T02:53:28.455Z,100.00
2017-11-30T02:55:56.029Z,100.00
2017-11-30T02:58:23.640Z,100.00
2017-11-30T03:00:51.362Z,100.00
2017-11-30T03:03:18.927Z,100.00
2017-11-30T03:05:46.488Z,100.00
2017-11-30T03:08:14.094Z,100.00
2017-11-30T03:10:41.685Z,100.00
2017-11-30T03:13:09.227Z,100.00
2017-11-30T03:15:36.823Z,100.00
2017-11-30T03:18:04.361Z,100.00
2017-11-30T03:20:33.909Z,100.00
2017-11-30T03:23:01.479Z,100.00
2017-11-30T03:25:29.164Z,100.00
2017-11-30T03:27:56.706Z,100.00
2017-11-30T03:30:24.258Z,100.00
2017-11-30T03:32:51.843Z,100.00
2017-11-30T03:35:19.541Z,100.00
2017-11-30T03:37:48.035Z,100.00
2017-11-30T03:40:15.618Z,100.00
2017-11-30T03:42:43.194Z,100.00
2017-11-30T03:45:10.904Z,100.00
2017-11-30T03:47:38.443Z,100.00
2017-11-30T03:50:05.987Z,100.00
2017-11-30T03:52:33.555Z,100.00
2017-11-30T03:55:01.186Z,100.00
2017-11-30T03:57:28.752Z,100.00
2017-11-30T03:59:57.997Z,100.00
2017-11-30T04:02:25.673Z,100.00
2017-11-30T04:04:53.235Z,100.00
2017-11-30T04:07:20.778Z,100.00
2017-11-30T04:09:49.296Z,100.00
2017-11-30T04:12:16.947Z,100.00
2017-11-30T04:14:44.487Z,100.00
2017-11-30T04:17:12.151Z,100.00
2017-11-30T04:19:39.687Z,100.00
2017-11-30T04:22:07.231Z,100.00
2017-11-30T04:24:34.786Z,100.00
2017-11-30T04:27:02.347Z,100.00
2017-11-30T04:29:29.915Z,100.00
2017-11-30T04:31:57.504Z,100.00
2017-11-30T04:34:25.048Z,100.00
2017-11-30T04:36:52.588Z,100.00
2017-11-30T04:39:20.152Z,100.00
2017-11-30T04:41:47.713Z,100.00
2017-11-30T04:44:15.258Z,100.00
2017-11-30T04:46:42.854Z,100.00
2017-11-30T04:49:10.395Z,100.00
2017-11-30T04:51:38.877Z,100.00
2017-11-30T04:54:06.486Z,100.00
2017-11-30T04:56:34.017Z,100.00
2017-11-30T04:59:01.583Z,100.00
2017-11-30T05:01:29.167Z,100.00
2017-11-30T05:03:56.719Z,100.00
2017-11-30T05:06:24.264Z,100.00
2017-11-30T05:08:51.844Z,100.00
2017-11-30T05:11:19.400Z,100.00
2017-11-30T05:13:46.993Z,100.00
2017-11-30T05:16:14.540Z,100.00
2017-11-30T05:18:42.066Z,100.00
2017-11-30T05:21:09.624Z,100.00
2017-11-30T05:23:37.299Z,100.00
2017-11-30T05:26:04.826Z,100.00
2017-11-30T05:28:32.405Z,100.00
2017-11-30T05:30:59.983Z,100.00
2017-11-30T05:33:27.516Z,100.00
2017-11-30T05:35:55.047Z,100.00
2017-11-30T05:38:22.605Z,100.00
2017-11-30T05:40:50.204Z,100.00
2017-11-30T05:43:17.782Z,100.00
2017-11-30T05:45:45.322Z,100.00
2017-11-30T05:48:12.862Z,100.00
2017-11-30T05:50:40.451Z,100.00
2017-11-30T05:53:07.991Z,100.00
2017-11-30T05:55:35.524Z,100.00
2017-11-30T05:58:03.235Z,100.00
2017-11-30T06:00:30.792Z,100.00
2017-11-30T06:02:58.334Z,100.00
2017-11-30T06:05:26.063Z,100.00
2017-11-30T06:07:53.589Z,100.00
2017-11-30T06:10:21.115Z,100.00
2017-11-30T06:12:48.697Z,100.00
2017-11-30T06:15:16.423Z,100.00
2017-11-30T06:17:43.952Z,100.00
2017-11-30T06:20:11.491Z,100.00
2017-11-30T06:22:39.231Z,100.00
2017-11-30T06:25:06.790Z,100.00
2017-11-30T06:27:34.343Z,100.00
2017-11-30T06:30:01.867Z,100.00
2017-11-30T06:32:29.539Z,100.00
2017-11-30T06:34:57.066Z,100.00
2017-11-30T06:37:24.595Z,100.00
2017-11-30T06:39:52.152Z,100.00
2017-11-30T06:42:19.724Z,100.00
2017-11-30T06:44:47.394Z,99.75
2017-11-30T06:47:14.919Z,100.00
2017-11-30T06:49:42.447Z,100.00
2017-11-30T06:52:10.026Z,99.47
2017-11-30T06:54:37.547Z,99.74
2017-11-30T06:57:05.082Z,99.65
2017-11-30T06:59:32.835Z,99.73
2017-11-30T07:02:00.360Z,99.74
2017-11-30T07:04:27.886Z,99.64
2017-11-30T07:06:55.430Z,99.17
2017-11-30T07:09:22.979Z,99.41
2017-11-30T07:11:50.515Z,99.41
2017-11-30T07:14:18.101Z,99.55
2017-11-30T07:16:45.623Z,99.47
2017-11-30T07:19:13.141Z,99.59
2017-11-30T07:21:40.679Z,99.71
2017-11-30T07:24:08.194Z,99.85
2017-11-30T07:26:35.756Z,99.95
2017-11-30T07:29:03.274Z,99.25
2017-11-30T07:31:30.794Z,99.59
2017-11-30T07:33:58.557Z,99.69
2017-11-30T07:36:26.075Z,99.38
2017-11-30T07:38:53.594Z,99.61
2017-11-30T07:41:21.144Z,99.27
2017-11-30T07:43:48.665Z,100.00
2017-11-30T07:46:16.422Z,99.22
2017-11-30T07:48:43.934Z,99.55
2017-11-30T07:51:11.454Z,99.92
2017-11-30T07:53:39.030Z,99.63
2017-11-30T07:56:06.550Z,99.44
2017-11-30T07:58:34.078Z,99.12
2017-11-30T08:01:01.768Z,99.01
2017-11-30T08:03:29.286Z,98.81
2017-11-30T08:05:56.796Z,98.60
2017-11-30T08:08:24.368Z,98.71
2017-11-30T08:10:51.881Z,98.92
2017-11-30T08:13:19.407Z,99.35
2017-11-30T08:15:46.955Z,98.62
2017-11-30T08:18:14.559Z,98.05
2017-11-30T08:20:42.083Z,97.19
2017-11-30T08:23:09.593Z,96.92
2017-11-30T08:25:37.168Z,98.03
2017-11-30T08:28:04.727Z,97.58
2017-11-30T08:30:32.294Z,97.75
2017-11-30T08:32:59.814Z,97.83
2017-11-30T08:35:27.350Z,97.93
2017-11-30T08:37:54.952Z,99.07
2017-11-30T08:40:22.487Z,98.88
2017-11-30T08:42:50.039Z,97.50
2017-11-30T08:45:17.693Z,97.84
2017-11-30T08:47:45.317Z,97.36
2017-11-30T08:50:12.836Z,97.20
2017-11-30T08:52:40.395Z,97.81
2017-11-30T08:55:07.972Z,98.51
2017-11-30T08:57:35.627Z,98.03
2017-11-30T09:00:03.174Z,98.11
2017-11-30T09:02:30.693Z,98.27
2017-11-30T09:04:58.299Z,98.01
2017-11-30T09:07:25.810Z,98.48
2017-11-30T09:09:53.330Z,97.90
2017-11-30T09:12:20.902Z,97.69
2017-11-30T09:14:48.428Z,98.91
2017-11-30T09:17:15.950Z,99.16
2017-11-30T09:19:43.603Z,98.17
2017-11-30T09:22:11.159Z,97.60
2017-11-30T09:24:38.678Z,97.53
2017-11-30T09:27:06.251Z,97.15
2017-11-30T09:29:33.771Z,97.53
2017-11-30T09:32:01.307Z,97.07
2017-11-30T09:34:29.017Z,96.21
2017-11-30T09:36:56.583Z,97.09
2017-11-30T09:39:24.119Z,96.88
2017-11-30T09:41:51.695Z,96.69
2017-11-30T09:44:19.231Z,97.04
2017-11-30T09:46:46.770Z,97.18
2017-11-30T09:49:14.454Z,97.02
2017-11-30T09:51:42.915Z,98.21
2017-11-30T09:54:10.467Z,98.43
2017-11-30T09:56:38.067Z,98.41
2017-11-30T09:59:05.620Z,97.51
2017-11-30T10:01:33.154Z,96.88
2017-11-30T10:04:00.835Z,96.83
2017-11-30T10:06:28.370Z,95.19
2017-11-30T10:08:55.952Z,95.85
2017-11-30T10:11:23.535Z,95.78
2017-11-30T10:13:51.061Z,96.25
2017-11-30T10:16:18.586Z,95.58
2017-11-30T10:18:46.154Z,96.41
2017-11-30T10:21:13.671Z,97.18
2017-11-30T10:23:41.183Z,96.85
2017-11-30T10:26:08.739Z,95.99
2017-11-30T10:28:36.288Z,95.17
2017-11-30T10:31:03.802Z,94.37
2017-11-30T10:33:31.359Z,94.90
2017-11-30T10:35:58.874Z,96.72
2017-11-30T10:38:26.393Z,96.38
2017-11-30T10:40:53.934Z,95.30
2017-11-30T10:43:21.451Z,93.69
2017-11-30T10:45:49.250Z,96.01
2017-11-30T10:48:16.761Z,95.94
2017-11-30T10:50:44.270Z,97.21
2017-11-30T10:53:11.923Z,96.63
2017-11-30T10:55:39.443Z,96.08
2017-11-30T10:58:06.973Z,96.99
2017-11-30T11:00:34.571Z,95.85
2017-11-30T11:03:02.078Z,96.88
2017-11-30T11:05:29.604Z,96.82
2017-11-30T11:07:57.163Z,94.61
2017-11-30T11:10:24.668Z,94.94
2017-11-30T11:12:52.245Z,95.39
2017-11-30T11:15:19.758Z,94.21
2017-11-30T11:17:47.277Z,95.60
2017-11-30T11:20:14.819Z,94.12
2017-11-30T11:22:42.340Z,93.97
2017-11-30T11:25:09.913Z,94.79
2017-11-30T11:27:37.432Z,93.20
2017-11-30T11:30:04.953Z,94.17
2017-11-30T11:32:32.639Z,94.53
2017-11-30T11:35:00.160Z,96.26
2017-11-30T11:37:27.689Z,96.44
2017-11-30T11:39:55.254Z,95.57
2017-11-30T11:42:22.762Z,95.21
2017-11-30T11:44:50.282Z,95.01
2017-11-30T11:47:17.966Z,96.69
2017-11-30T11:49:45.474Z,96.59
2017-11-30T11:52:12.999Z,96.04
2017-11-30T11:54:40.609Z,94.12
2017-11-30T11:57:08.161Z,94.22
2017-11-30T11:59:35.683Z,93.58
2017-11-30T12:02:03.246Z,94.68
2017-11-30T12:04:30.758Z,94.35
2017-11-30T12:06:58.302Z,94.27
2017-11-30T12:09:25.825Z,92.47
2017-11-30T12:11:53.360Z,93.12
2017-11-30T12:14:20.886Z,93.29
2017-11-30T12:16:48.428Z,92.98
2017-11-30T12:19:15.938Z,92.44
2017-11-30T12:21:43.492Z,92.62
2017-11-30T12:24:11.073Z,92.18
2017-11-30T12:26:38.590Z,92.38
2017-11-30T12:29:06.097Z,93.24
2017-11-30T12:31:33.653Z,93.26
2017-11-30T12:34:01.163Z,92.63
2017-11-30T12:36:28.672Z,92.23
2017-11-30T12:38:56.370Z,93.10
2017-11-30T12:41:23.886Z,92.94
2017-11-30T12:43:51.397Z,92.27
2017-11-30T12:46:18.959Z,92.38
2017-11-30T12:48:46.466Z,92.48
2017-11-30T12:51:13.969Z,91.23
2017-11-30T12:53:41.515Z,91.33
2017-11-30T12:56:09.055Z,91.58
2017-11-30T12:58:36.606Z,92.11
2017-11-30T13:01:04.121Z,91.71
2017-11-30T13:03:31.657Z,91.93
2017-11-30T13:05:59.234Z,92.22
2017-11-30T13:08:26.764Z,91.65
2017-11-30T13:10:54.332Z,92.49
2017-11-30T13:13:21.863Z,92.74
2017-11-30T13:15:49.413Z,91.86
2017-11-30T13:18:16.928Z,92.18
2017-11-30T13:20:44.599Z,92.06
2017-11-30T13:23:12.120Z,92.17
2017-11-30T13:25:39.656Z,90.70
2017-11-30T13:28:07.348Z,90.91
2017-11-30T13:30:34.858Z,89.68
2017-11-30T13:33:02.382Z,92.48
2017-11-30T13:35:29.964Z,92.47
2017-11-30T13:37:57.477Z,91.48
2017-11-30T13:40:25.850Z,93.36
2017-11-30T13:42:53.416Z,93.26
2017-11-30T13:45:20.934Z,92.65
2017-11-30T13:47:48.441Z,93.72
2017-11-30T13:50:16.040Z,92.40
2017-11-30T13:52:43.781Z,91.77
2017-11-30T13:55:11.292Z,90.75
2017-11-30T13:57:38.806Z,90.76
2017-11-30T14:00:06.339Z,92.90
2017-11-30T14:02:33.901Z,93.17
2017-11-30T14:05:01.404Z,92.79
2017-11-30T14:07:28.925Z,93.29
2017-11-30T14:09:56.609Z,93.51
2017-11-30T14:12:24.127Z,94.66
2017-11-30T14:14:51.632Z,94.27
2017-11-30T14:17:19.161Z,94.26
2017-11-30T14:19:46.667Z,94.14
2017-11-30T14:22:14.328Z,94.14
2017-11-30T14:24:41.839Z,93.87
2017-11-30T14:27:09.337Z,94.03
2017-11-30T14:29:37.056Z,93.00
2017-11-30T14:32:04.561Z,93.31
2017-11-30T14:34:32.091Z,93.29
2017-11-30T14:36:59.776Z,93.04
2017-11-30T14:39:27.288Z,93.18
2017-11-30T14:41:54.804Z,93.36
2017-11-30T14:44:22.357Z,92.94
2017-11-30T14:46:49.878Z,93.59
2017-11-30T14:49:17.441Z,93.55
2017-11-30T14:51:44.953Z,93.96
2017-11-30T14:54:12.517Z,94.28
2017-11-30T14:56:40.026Z,93.94
2017-11-30T14:59:07.540Z,93.62
2017-11-30T15:01:35.121Z,93.51
2017-11-30T15:04:02.628Z,93.62
2017-11-30T15:06:30.145Z,93.90
2017-11-30T15:08:57.825Z,94.34
2017-11-30T15:11:25.720Z,94.03
2017-11-30T15:13:53.242Z,93.85
2017-11-30T15:16:20.801Z,93.81
2017-11-30T15:18:48.360Z,94.24
2017-11-30T15:21:15.864Z,93.99
2017-11-30T15:23:43.372Z,93.88
2017-11-30T15:26:10.941Z,93.81
2017-11-30T15:28:38.448Z,93.90
2017-11-30T15:31:05.961Z,94.23
2017-11-30T15:33:33.497Z,94.50
2017-11-30T15:36:01.143Z,94.62
2017-11-30T15:38:28.669Z,94.98
2017-11-30T15:40:56.175Z,95.42
2017-11-30T15:43:23.709Z,95.27
2017-11-30T15:45:51.412Z,97.14
2017-11-30T15:48:18.921Z,96.23
2017-11-30T15:50:46.425Z,96.93
2017-11-30T15:53:13.961Z,97.75
2017-11-30T15:55:41.470Z,97.22
2017-11-30T15:58:09.186Z,96.98
2017-11-30T16:00:36.693Z,97.15
2017-11-30T16:03:04.200Z,95.68
2017-11-30T16:05:31.740Z,95.78
2017-11-30T16:07:59.249Z,96.34
2017-11-30T16:10:26.789Z,97.44
2017-11-30T16:12:54.308Z,97.02
2017-11-30T16:15:21.959Z,97.17
2017-11-30T16:17:49.761Z,97.61
2017-11-30T16:20:17.264Z,98.22
2017-11-30T16:22:44.908Z,98.30
2017-11-30T16:25:12.412Z,98.34
2017-11-30T16:27:39.928Z,98.17
2017-11-30T16:30:07.539Z,97.69
2017-11-30T16:32:35.074Z,98.17
2017-11-30T16:35:02.604Z,98.17
2017-11-30T16:37:30.156Z,97.83
2017-11-30T16:39:57.684Z,97.15
2017-11-30T16:42:25.236Z,96.92
2017-11-30T16:44:52.749Z,97.56
2017-11-30T16:47:20.289Z,98.00
2017-11-30T16:49:47.965Z,97.79
2017-11-30T16:52:15.499Z,97.44
2017-11-30T16:54:43.050Z,97.21
2017-11-30T16:57:10.598Z,96.30
2017-11-30T16:59:38.146Z,95.96
2017-11-30T17:02:06.112Z,96.64
2017-11-30T17:04:33.639Z,97.44
2017-11-30T17:07:01.196Z,98.02
2017-11-30T17:09:28.704Z,97.95
2017-11-30T17:11:56.213Z,97.94
2017-11-30T17:14:23.759Z,98.15
2017-11-30T17:16:51.345Z,98.08
2017-11-30T17:19:18.872Z,97.79
2017-11-30T17:21:46.389Z,97.66
2017-11-30T17:24:13.934Z,97.56
2017-11-30T17:26:41.474Z,97.68
2017-11-30T17:29:09.122Z,97.99
2017-11-30T17:31:36.638Z,97.90
2017-11-30T17:34:04.158Z,98.04
2017-11-30T17:36:31.901Z,97.82
2017-11-30T17:38:59.436Z,98.28
2017-11-30T17:41:26.958Z,98.16
2017-11-30T17:43:54.617Z,98.00
2017-11-30T17:46:23.064Z,97.93
2017-11-30T17:48:57.091Z,97.55
2017-11-30T17:51:24.641Z,97.32
2017-11-30T17:53:52.157Z,97.31
2017-11-30T17:56:19.861Z,97.11
2017-11-30T17:58:47.385Z,97.20
2017-11-30T18:01:14.902Z,98.13
2017-11-30T18:03:42.444Z,98.49
2017-11-30T18:06:09.961Z,98.37
2017-11-30T18:08:37.676Z,98.21
2017-11-30T18:11:05.200Z,98.31
2017-11-30T18:13:32.755Z,98.27
2017-11-30T18:16:00.376Z,98.85
2017-11-30T18:18:27.889Z,98.75
2017-11-30T18:20:55.423Z,98.81
2017-11-30T18:23:22.932Z,99.05
2017-11-30T18:25:50.511Z,99.18
2017-11-30T18:28:18.029Z,99.10
2017-11-30T18:30:45.553Z,99.09
2017-11-30T18:33:13.125Z,98.82
2017-11-30T18:35:40.665Z,99.25
2017-11-30T18:38:08.192Z,99.61
2017-11-30T18:40:35.776Z,99.22
2017-11-30T18:43:03.305Z,99.60
2017-11-30T18:45:30.817Z,99.61
2017-11-30T18:47:58.380Z,98.87
2017-11-30T18:50:25.902Z,98.49
2017-11-30T18:52:53.422Z,98.31
2017-11-30T18:55:21.198Z,98.43
2017-11-30T18:57:48.715Z,98.56
2017-11-30T19:00:16.230Z,98.64
2017-11-30T19:02:43.802Z,98.94
2017-11-30T19:05:11.316Z,98.53
2017-11-30T19:07:38.843Z,98.80
2017-11-30T19:10:06.527Z,99.13
2017-11-30T19:12:34.044Z,99.02
2017-11-30T19:15:01.559Z,98.98
2017-11-30T19:17:29.109Z,98.86
2017-11-30T19:19:56.691Z,98.95
2017-11-30T19:22:24.205Z,98.74
2017-11-30T19:24:51.739Z,99.24
2017-11-30T19:27:19.286Z,99.35
2017-11-30T19:29:46.805Z,100.00
2017-11-30T19:32:14.581Z,100.00
2017-11-30T19:34:42.102Z,100.00
2017-11-30T19:37:09.608Z,99.83
2017-11-30T19:39:37.204Z,100.00
2017-11-30T19:42:04.776Z,100.00
2017-11-30T19:44:32.340Z,100.00
2017-11-30T19:46:59.895Z,100.00
2017-11-30T19:49:27.455Z,100.00
2017-11-30T19:51:55.003Z,99.62
2017-11-30T19:54:22.580Z,99.63
2017-11-30T19:56:50.210Z,99.47
2017-11-30T19:59:17.741Z,99.61
2017-11-30T20:01:45.397Z,99.62
2017-11-30T20:04:12.911Z,99.64
2017-11-30T20:06:40.428Z,99.44
2017-11-30T20:09:08.185Z,99.87
2017-11-30T20:11:35.695Z,100.00
2017-11-30T20:14:03.219Z,99.79
2017-11-30T20:16:30.805Z,100.00
2017-11-30T20:18:58.350Z,100.00
2017-11-30T20:21:25.928Z,99.94
2017-11-30T20:23:53.589Z,100.00
2017-11-30T20:26:21.119Z,100.00
2017-11-30T20:28:48.655Z,99.90
2017-11-30T20:31:16.201Z,99.64
2017-11-30T20:33:43.707Z,99.42
2017-11-30T20:36:11.257Z,99.45
2017-11-30T20:38:38.767Z,99.33
2017-11-30T20:41:06.460Z,99.36
2017-11-30T20:43:33.997Z,98.61
2017-11-30T20:46:01.521Z,98.72
2017-11-30T20:48:29.071Z,98.64
2017-11-30T20:50:56.735Z,99.27
2017-11-30T20:53:24.246Z,98.89
2017-11-30T20:55:51.775Z,99.28
2017-11-30T20:58:19.335Z,98.77
2017-11-30T21:00:46.955Z,98.65
2017-11-30T21:03:14.524Z,98.88
2017-11-30T21:05:42.045Z,98.97
2017-11-30T21:08:09.568Z,98.94
2017-11-30T21:10:37.252Z,99.14
2017-11-30T21:13:04.780Z,98.99
2017-11-30T21:15:32.311Z,99.38
2017-11-30T21:17:59.899Z,99.48
2017-11-30T21:20:27.427Z,99.26
2017-11-30T21:22:54.953Z,99.34
2017-11-30T21:25:22.644Z,99.14
2017-11-30T21:27:50.165Z,99.14
2017-11-30T21:30:17.684Z,99.47
2017-11-30T21:32:45.233Z,99.55
2017-11-30T21:35:12.826Z,99.26
2017-11-30T21:37:40.374Z,99.07
2017-11-30T21:40:07.893Z,98.94
2017-11-30T21:42:35.457Z,99.11
2017-11-30T21:45:03.041Z,99.53
2017-11-30T21:47:30.565Z,98.66
2017-11-30T21:49:58.097Z,98.20
2017-11-30T21:52:25.682Z,98.70
2017-11-30T21:54:53.224Z,97.93
2017-11-30T21:57:20.739Z,98.78
2017-11-30T21:59:48.411Z,100.00
2017-11-30T22:02:15.956Z,100.00
2017-11-30T22:04:43.488Z,100.00
2017-11-30T22:07:11.149Z,100.00
2017-11-30T22:09:38.676Z,100.00
2017-11-30T22:12:06.221Z,100.00
2017-11-30T22:14:33.790Z,100.00
2017-11-30T22:17:01.394Z,100.00
2017-11-30T22:19:28.929Z,100.00
2017-11-30T22:21:56.514Z,100.00
2017-11-30T22:24:24.073Z,100.00
2017-11-30T22:26:51.616Z,100.00
2017-11-30T22:29:19.193Z,100.00
2017-11-30T22:31:46.734Z,99.92
2017-11-30T22:34:14.280Z,99.59
2017-11-30T22:36:41.890Z,99.37
2017-11-30T22:39:09.441Z,99.45
2017-11-30T22:41:36.968Z,99.76
2017-11-30T22:44:04.529Z,100.00
2017-11-30T22:46:32.068Z,100.00
2017-11-30T22:48:59.749Z,100.00
2017-11-30T22:51:27.293Z,100.00
2017-11-30T22:53:54.835Z,99.65
2017-11-30T22:56:22.505Z,100.00
2017-11-30T22:58:50.046Z,99.72
2017-11-30T23:01:17.621Z,100.00
2017-11-30T23:03:45.216Z,100.00
2017-11-30T23:06:12.752Z,99.53
2017-11-30T23:08:40.276Z,99.44
2017-11-30T23:11:07.946Z,99.68
2017-11-30T23:13:35.476Z,99.76
2017-11-30T23:16:02.997Z,99.95
2017-11-30T23:18:30.597Z,99.96
2017-11-30T23:20:58.138Z,100.00
2017-11-30T23:23:25.688Z,100.00
2017-11-30T23:25:53.276Z,100.00
2017-11-30T23:28:20.838Z,100.00
2017-11-30T23:30:48.450Z,100.00
2017-11-30T23:33:16.004Z,100.00
2017-11-30T23:35:43.604Z,100.00
2017-11-30T23:38:11.171Z,100.00
2017-11-30T23:40:38.704Z,100.00
2017-11-30T23:43:06.368Z,100.00
2017-11-30T23:45:33.900Z,100.00
2017-11-30T23:48:01.432Z,100.00
2017-11-30T23:50:29.101Z,100.00
2017-11-30T23:52:56.663Z,100.00
2017-11-30T23:55:24.197Z,100.00
2017-11-30T23:57:51.748Z,100.00
